Time,TemperatureF,DewpointF,PressureIn,WindDirection,WindDirectionDegrees,WindSpeedMPH,WindSpeedGustMPH,Humidity,HourlyPrecipIn,Conditions,Clouds,dailyrainin,SolarRadiationWatts/m^2,SoftwareType,DateUTC
2013-02-28 00:00:00,38.2,36.9,29.65,WSW,238,0.0,0.0,95,0.00,,,0.32,0,Wunderground v.1.15,2013-02-28 05:00:00,
2013-02-28 00:10:00,38.0,36.7,29.65,WSW,238,0.0,0.0,95,0.00,,,0.00,0,Wunderground v.1.15,2013-02-28 05:10:00,
2013-02-28 00:15:00,38.0,36.7,29.65,WSW,238,0.0,0.0,95,0.00,,,0.00,0,Wunderground v.1.15,2013-02-28 05:15:00,
2013-02-28 00:25:00,37.9,36.6,29.65,WSW,238,0.0,0.0,95,0.00,,,0.00,0,Wunderground v.1.15,2013-02-28 05:25:00,
2013-02-28 00:35:00,37.9,36.6,29.64,WSW,238,0.0,0.0,95,0.00,,,0.00,0,Wunderground v.1.15,2013-02-28 05:35:00,
2013-02-28 00:40:00,37.9,36.6,29.64,WSW,238,0.0,0.0,95,0.00,,,0.00,0,Wunderground v.1.15,2013-02-28 05:40:00,
2013-02-28 00:50:00,37.8,36.5,29.64,WSW,238,0.0,0.0,95,0.00,,,0.00,0,Wunderground v.1.15,2013-02-28 05:50:00,
2013-02-28 00:55:00,37.8,36.5,29.64,WSW,238,0.0,0.0,95,0.00,,,0.00,0,Wunderground v.1.15,2013-02-28 05:55:00,
2013-02-28 01:05:00,37.8,36.5,29.64,WSW,238,0.0,0.0,95,0.00,,,0.00,0,Wunderground v.1.15,2013-02-28 06:05:00,
2013-02-28 01:15:00,37.8,36.8,29.64,WSW,238,0.0,0.0,96,0.00,,,0.00,0,Wunderground v.1.15,2013-02-28 06:15:00,
2013-02-28 01:25:00,37.7,36.7,29.64,WSW,238,0.0,0.0,96,0.00,,,0.00,0,Wunderground v.1.15,2013-02-28 06:25:00,
2013-02-28 01:35:00,37.7,36.7,29.64,WSW,238,0.0,0.0,96,0.00,,,0.00,0,Wunderground v.1.15,2013-02-28 06:35:00,
2013-02-28 01:45:00,37.7,36.7,29.64,WSW,238,0.0,0.0,96,0.00,,,0.00,0,Wunderground v.1.15,2013-02-28 06:45:00,
2013-02-28 01:50:00,37.6,36.6,29.64,WSW,238,0.0,0.0,96,0.00,,,0.00,0,Wunderground v.1.15,2013-02-28 06:50:00,
2013-02-28 02:00:00,37.6,36.6,29.63,WSW,238,0.0,0.0,96,0.00,,,0.00,0,Wunderground v.1.15,2013-02-28 07:00:00,
2013-02-28 02:10:00,37.5,36.5,29.63,WSW,238,0.0,0.0,96,0.00,,,0.00,0,Wunderground v.1.15,2013-02-28 07:10:00,
2013-02-28 02:20:00,37.5,36.5,29.64,WSW,238,0.0,0.0,96,0.00,,,0.00,0,Wunderground v.1.15,2013-02-28 07:20:00,
2013-02-28 02:30:00,37.4,36.4,29.64,WSW,238,0.0,0.0,96,0.00,,,0.00,0,Wunderground v.1.15,2013-02-28 07:30:00,
2013-02-28 02:40:00,37.4,36.4,29.64,WSW,238,0.0,0.0,96,0.00,,,0.00,0,Wunderground v.1.15,2013-02-28 07:40:00,
2013-02-28 02:50:00,37.4,36.4,29.64,WSW,238,0.0,0.0,96,0.00,,,0.00,0,Wunderground v.1.15,2013-02-28 07:50:00,
2013-02-28 02:55:00,37.4,36.4,29.64,WSW,238,0.0,0.0,96,0.00,,,0.00,0,Wunderground v.1.15,2013-02-28 07:55:00,
2013-02-28 03:00:00,37.4,36.4,29.64,WSW,238,0.0,0.0,96,0.00,,,0.00,0,Wunderground v.1.15,2013-02-28 08:00:00,
2013-02-28 03:10:00,37.3,36.3,29.64,WSW,238,0.0,0.0,96,0.00,,,0.00,0,Wunderground v.1.15,2013-02-28 08:10:00,
2013-02-28 03:20:00,37.2,36.2,29.64,WSW,238,0.0,0.0,96,0.00,,,0.00,0,Wunderground v.1.15,2013-02-28 08:20:00,
2013-02-28 03:30:00,37.2,36.2,29.63,WSW,238,0.0,0.0,96,0.00,,,0.00,0,Wunderground v.1.15,2013-02-28 08:30:00,
2013-02-28 03:40:00,37.2,36.2,29.63,WSW,238,0.0,0.0,96,0.00,,,0.00,0,Wunderground v.1.15,2013-02-28 08:40:00,
2013-02-28 03:45:00,37.1,36.1,29.63,WSW,238,0.0,0.0,96,0.00,,,0.00,0,Wunderground v.1.15,2013-02-28 08:45:00,
2013-02-28 03:55:00,37.2,36.2,29.63,WSW,238,0.0,0.0,96,0.00,,,0.00,0,Wunderground v.1.15,2013-02-28 08:55:00,
2013-02-28 04:00:00,37.2,36.2,29.63,WSW,238,0.0,0.0,96,0.00,,,0.00,0,Wunderground v.1.15,2013-02-28 09:00:00,
2013-02-28 04:10:00,37.3,36.3,29.63,WSW,238,0.0,0.0,96,0.00,,,0.00,0,Wunderground v.1.15,2013-02-28 09:10:00,
2013-02-28 04:15:00,37.2,36.2,29.63,WSW,238,0.0,0.0,96,0.00,,,0.00,0,Wunderground v.1.15,2013-02-28 09:15:00,
2013-02-28 04:25:00,37.2,36.2,29.63,WSW,238,0.0,0.0,96,0.00,,,0.00,0,Wunderground v.1.15,2013-02-28 09:25:00,
2013-02-28 04:35:00,37.1,36.1,29.64,WSW,238,0.0,0.0,96,0.00,,,0.00,0,Wunderground v.1.15,2013-02-28 09:35:00,
2013-02-28 04:45:00,37.1,36.1,29.64,WSW,238,0.0,0.0,96,0.00,,,0.00,0,Wunderground v.1.15,2013-02-28 09:45:00,
2013-02-28 04:50:00,37.0,36.0,29.64,WSW,238,0.0,0.0,96,0.00,,,0.00,0,Wunderground v.1.15,2013-02-28 09:50:00,
2013-02-28 05:00:00,37.0,36.0,29.64,WSW,238,0.0,0.0,96,0.00,,,0.00,0,Wunderground v.1.15,2013-02-28 10:00:00,
2013-02-28 05:05:00,36.9,35.9,29.64,WSW,238,0.0,0.0,96,0.00,,,0.00,0,Wunderground v.1.15,2013-02-28 10:05:00,
2013-02-28 05:15:00,36.9,35.9,29.64,WSW,238,0.0,0.0,96,0.00,,,0.00,0,Wunderground v.1.15,2013-02-28 10:15:00,
2013-02-28 05:25:00,37.0,36.2,29.64,West,269,0.0,3.0,97,0.00,,,0.00,0,Wunderground v.1.15,2013-02-28 10:25:00,
2013-02-28 05:35:00,37.0,36.2,29.64,West,269,0.0,2.0,97,0.00,,,0.00,0,Wunderground v.1.15,2013-02-28 10:35:00,
2013-02-28 05:40:00,37.0,36.0,29.64,West,269,0.0,0.0,96,0.00,,,0.00,0,Wunderground v.1.15,2013-02-28 10:40:00,
2013-02-28 05:50:00,37.0,36.2,29.64,West,276,0.0,0.0,97,0.00,,,0.00,0,Wunderground v.1.15,2013-02-28 10:50:00,
2013-02-28 05:55:00,36.9,36.1,29.64,West,276,0.0,0.0,97,0.00,,,0.00,0,Wunderground v.1.15,2013-02-28 10:55:00,
2013-02-28 06:05:00,36.8,35.8,29.64,West,261,0.0,0.0,96,0.00,,,0.00,0,Wunderground v.1.15,2013-02-28 11:05:00,
2013-02-28 06:10:00,36.7,35.7,29.64,West,261,0.0,0.0,96,0.00,,,0.00,0,Wunderground v.1.15,2013-02-28 11:10:00,
2013-02-28 06:20:00,36.5,35.5,29.64,West,261,0.0,0.0,96,0.00,,,0.00,0,Wunderground v.1.15,2013-02-28 11:20:00,
2013-02-28 06:25:00,36.3,35.3,29.64,West,261,0.0,0.0,96,0.00,,,0.00,0,Wunderground v.1.15,2013-02-28 11:25:00,
2013-02-28 06:35:00,36.1,35.1,29.64,West,261,0.0,0.0,96,0.00,,,0.00,0,Wunderground v.1.15,2013-02-28 11:35:00,
2013-02-28 06:45:00,35.9,34.9,29.64,West,261,0.0,0.0,96,0.00,,,0.00,0,Wunderground v.1.15,2013-02-28 11:45:00,
2013-02-28 06:55:00,35.5,34.5,29.64,West,261,0.0,0.0,96,0.00,,,0.00,5,Wunderground v.1.15,2013-02-28 11:55:00,
2013-02-28 07:00:00,35.3,34.3,29.64,West,261,0.0,0.0,96,0.00,,,0.00,7,Wunderground v.1.15,2013-02-28 12:00:00,
2013-02-28 07:05:00,35.1,34.1,29.64,West,261,0.0,0.0,96,0.00,,,0.00,9,Wunderground v.1.15,2013-02-28 12:05:00,
2013-02-28 07:15:00,34.7,33.7,29.65,West,261,0.0,0.0,96,0.00,,,0.00,26,Wunderground v.1.15,2013-02-28 12:15:00,
2013-02-28 07:25:00,34.6,33.6,29.65,West,261,0.0,0.0,96,0.00,,,0.00,33,Wunderground v.1.15,2013-02-28 12:25:00,
2013-02-28 07:30:00,34.6,33.6,29.65,West,261,0.0,0.0,96,0.00,,,0.00,37,Wunderground v.1.15,2013-02-28 12:30:00,
2013-02-28 07:40:00,34.8,33.8,29.65,West,261,0.0,0.0,96,0.00,,,0.00,32,Wunderground v.1.15,2013-02-28 12:40:00,
2013-02-28 07:45:00,35.0,34.2,29.65,West,261,0.0,0.0,97,0.00,,,0.00,30,Wunderground v.1.15,2013-02-28 12:45:00,
2013-02-28 07:55:00,35.5,34.7,29.66,West,261,0.0,0.0,97,0.00,,,0.00,40,Wunderground v.1.15,2013-02-28 12:55:00,
2013-02-28 08:05:00,35.9,35.1,29.66,West,261,0.0,1.0,97,0.00,,,0.00,35,Wunderground v.1.15,2013-02-28 13:05:00,
2013-02-28 08:10:00,36.3,35.5,29.66,West,261,1.0,1.0,97,0.00,,,0.00,44,Wunderground v.1.15,2013-02-28 13:10:00,
2013-02-28 08:20:00,37.2,36.4,29.66,West,261,1.0,1.0,97,0.00,,,0.00,81,Wunderground v.1.15,2013-02-28 13:20:00,
2013-02-28 08:25:00,37.7,36.9,29.66,West,261,1.0,1.0,97,0.00,,,0.00,76,Wunderground v.1.15,2013-02-28 13:25:00,
2013-02-28 08:35:00,38.9,37.0,29.66,WSW,248,2.0,3.0,93,0.00,,,0.00,102,Wunderground v.1.15,2013-02-28 13:35:00,
2013-02-28 08:45:00,40.0,37.3,29.66,SSW,192,2.0,3.0,90,0.00,,,0.00,148,Wunderground v.1.15,2013-02-28 13:45:00,
2013-02-28 08:50:00,40.4,37.1,29.66,WSW,247,2.0,3.0,88,0.00,,,0.00,158,Wunderground v.1.15,2013-02-28 13:50:00,
2013-02-28 09:00:00,41.1,36.9,29.65,West,260,3.0,3.0,85,0.00,,,0.00,176,Wunderground v.1.15,2013-02-28 14:00:00,
2013-02-28 09:15:00,42.2,37.1,29.65,WNW,302,3.0,3.0,82,0.00,,,0.00,179,Wunderground v.1.15,2013-02-28 14:15:00,
2013-02-28 09:20:00,42.5,36.8,29.66,WSW,244,3.0,3.0,80,0.00,,,0.00,169,Wunderground v.1.15,2013-02-28 14:20:00,
2013-02-28 09:30:00,42.7,36.6,29.66,WSW,247,4.0,6.0,79,0.00,,,0.00,181,Wunderground v.1.15,2013-02-28 14:30:00,
2013-02-28 09:35:00,42.6,36.2,29.65,WSW,252,4.0,10.0,78,0.00,,,0.00,190,Wunderground v.1.15,2013-02-28 14:35:00,
2013-02-28 09:45:00,42.6,36.2,29.65,West,261,4.0,9.0,78,0.00,,,0.00,176,Wunderground v.1.15,2013-02-28 14:45:00,
2013-02-28 09:55:00,42.8,35.4,29.65,West,267,4.0,4.0,75,0.00,,,0.00,169,Wunderground v.1.15,2013-02-28 14:55:00,
2013-02-28 10:05:00,42.7,35.7,29.65,WSW,254,5.0,5.0,76,0.00,,,0.00,195,Wunderground v.1.15,2013-02-28 15:05:00,
2013-02-28 10:15:00,42.9,35.9,29.64,West,265,3.0,3.0,76,0.00,,,0.00,221,Wunderground v.1.15,2013-02-28 15:15:00,
2013-02-28 10:20:00,43.3,35.6,29.64,NW,313,3.0,4.0,74,0.00,,,0.00,127,Wunderground v.1.15,2013-02-28 15:20:00,
2013-02-28 10:30:00,43.8,35.4,29.63,NW,315,3.0,3.0,72,0.00,,,0.00,355,Wunderground v.1.15,2013-02-28 15:30:00,
2013-02-28 10:40:00,44.2,35.0,29.63,NW,304,4.0,5.0,70,0.00,,,0.00,434,Wunderground v.1.15,2013-02-28 15:40:00,
2013-02-28 10:50:00,44.6,34.3,29.63,NW,313,5.0,5.0,67,0.00,,,0.00,227,Wunderground v.1.15,2013-02-28 15:50:00,
2013-02-28 11:00:00,44.6,34.7,29.63,WNW,300,4.0,4.0,68,0.00,,,0.00,322,Wunderground v.1.15,2013-02-28 16:00:00,
2013-02-28 11:10:00,45.1,34.4,29.63,West,277,4.0,4.0,66,0.00,,,0.00,327,Wunderground v.1.15,2013-02-28 16:10:00,
2013-02-28 11:15:00,45.3,35.4,29.62,WSW,242,4.0,4.0,68,0.00,,,0.00,211,Wunderground v.1.15,2013-02-28 16:15:00,
2013-02-28 11:25:00,45.1,34.0,29.62,West,259,4.0,4.0,65,0.00,,,0.00,229,Wunderground v.1.15,2013-02-28 16:25:00,
2013-02-28 11:35:00,44.8,33.7,29.62,WNW,299,4.0,7.0,65,0.00,,,0.00,183,Wunderground v.1.15,2013-02-28 16:35:00,
2013-02-28 11:45:00,44.9,34.2,29.62,NW,315,5.0,7.0,66,0.00,,,0.00,160,Wunderground v.1.15,2013-02-28 16:45:00,
2013-02-28 11:50:00,45.1,34.4,29.62,SW,227,3.0,4.0,66,0.00,,,0.00,167,Wunderground v.1.15,2013-02-28 16:50:00,
2013-02-28 12:00:00,44.9,33.5,29.62,WSW,250,4.0,4.0,64,0.00,,,0.00,223,Wunderground v.1.15,2013-02-28 17:00:00,
2013-02-28 12:05:00,44.9,33.5,29.61,West,276,5.0,5.0,64,0.00,,,0.00,207,Wunderground v.1.15,2013-02-28 17:05:00,
2013-02-28 12:15:00,44.9,32.7,29.61,WNW,294,4.0,6.0,62,0.00,,,0.00,202,Wunderground v.1.15,2013-02-28 17:15:00,
2013-02-28 12:25:00,44.7,32.1,29.61,WSW,242,4.0,5.0,61,0.00,,,0.00,149,Wunderground v.1.15,2013-02-28 17:25:00,
2013-02-28 12:35:00,44.5,32.3,29.61,West,268,5.0,6.0,62,0.00,,,0.00,171,Wunderground v.1.15,2013-02-28 17:35:00,
2013-02-28 12:44:00,44.6,32.8,29.60,West,274,4.0,4.0,63,0.00,,,0.00,206,Wunderground v.1.15,2013-02-28 17:44:00,
2013-02-28 12:50:00,44.8,32.2,29.60,WNW,283,4.0,5.0,61,0.00,,,0.00,188,Wunderground v.1.15,2013-02-28 17:50:00,
2013-02-28 13:00:00,45.0,32.3,29.60,WNW,303,3.0,4.0,61,0.00,,,0.00,163,Wunderground v.1.15,2013-02-28 18:00:00,
2013-02-28 13:05:00,44.9,32.3,29.60,West,276,3.0,4.0,61,0.00,,,0.00,120,Wunderground v.1.15,2013-02-28 18:05:00,
2013-02-28 13:15:00,44.6,30.7,29.60,WSW,257,5.0,5.0,58,0.00,,,0.00,86,Wunderground v.1.15,2013-02-28 18:15:00,
2013-02-28 13:25:00,44.3,30.0,29.60,WSW,251,4.0,5.0,57,0.00,,,0.00,67,Wunderground v.1.15,2013-02-28 18:25:00,
2013-02-28 13:35:00,44.0,30.2,29.60,SSW,201,5.0,7.0,58,0.00,,,0.00,79,Wunderground v.1.15,2013-02-28 18:35:00,
2013-02-28 13:45:00,43.9,29.6,29.60,WNW,294,3.0,4.0,57,0.00,,,0.00,81,Wunderground v.1.15,2013-02-28 18:45:00,
2013-02-28 13:55:00,43.9,30.1,29.60,NW,314,4.0,4.0,58,0.00,,,0.00,72,Wunderground v.1.15,2013-02-28 18:55:00,
2013-02-28 14:00:00,43.7,29.9,29.61,WNW,294,5.0,5.0,58,0.00,,,0.00,40,Wunderground v.1.15,2013-02-28 19:00:00,
2013-02-28 14:09:00,43.3,30.7,29.61,NW,304,4.0,4.0,61,0.00,,,0.00,28,Wunderground v.1.15,2013-02-28 19:09:00,
2013-02-28 14:15:00,43.1,30.6,29.61,West,259,3.0,4.0,61,0.00,,,0.00,39,Wunderground v.1.15,2013-02-28 19:15:00,
2013-02-28 14:24:00,43.0,30.5,29.61,WNW,298,3.0,3.0,61,0.00,,,0.00,83,Wunderground v.1.15,2013-02-28 19:24:00,
2013-02-28 14:30:00,43.1,30.6,29.61,West,280,4.0,8.0,61,0.00,,,0.00,160,Wunderground v.1.15,2013-02-28 19:30:00,
2013-02-28 14:40:00,43.6,31.0,29.61,WNW,297,4.0,8.0,61,0.00,,,0.00,111,Wunderground v.1.15,2013-02-28 19:40:00,
2013-02-28 14:49:00,43.4,30.8,29.61,NW,308,4.0,4.0,61,0.00,,,0.00,105,Wunderground v.1.15,2013-02-28 19:49:00,
2013-02-28 14:55:00,43.4,30.8,29.60,WNW,298,3.0,4.0,61,0.00,,,0.00,118,Wunderground v.1.15,2013-02-28 19:55:00,
2013-02-28 15:05:00,43.9,30.1,29.60,West,259,3.0,4.0,58,0.00,,,0.00,132,Wunderground v.1.15,2013-02-28 20:05:00,
2013-02-28 15:14:00,44.1,28.9,29.60,NW,316,4.0,4.0,55,0.00,,,0.00,128,Wunderground v.1.15,2013-02-28 20:14:00,
2013-02-28 15:20:00,44.2,28.6,29.60,NW,311,3.0,3.0,54,0.00,,,0.00,128,Wunderground v.1.15,2013-02-28 20:20:00,
2013-02-28 15:30:00,44.5,27.5,29.60,WSW,251,4.0,7.0,51,0.00,,,0.00,91,Wunderground v.1.15,2013-02-28 20:30:00,
2013-02-28 15:39:00,44.5,27.5,29.60,WNW,303,4.0,4.0,51,0.00,,,0.00,98,Wunderground v.1.15,2013-02-28 20:39:00,
2013-02-28 15:49:00,44.5,28.0,29.59,West,275,4.0,4.0,52,0.00,,,0.00,91,Wunderground v.1.15,2013-02-28 20:49:00,
2013-02-28 16:00:00,44.5,27.5,29.60,NNW,327,5.0,6.0,51,0.00,,,0.00,81,Wunderground v.1.15,2013-02-28 21:00:00,
2013-02-28 16:10:00,44.1,27.6,29.60,WNW,300,5.0,5.0,52,0.00,,,0.00,77,Wunderground v.1.15,2013-02-28 21:10:00,
2013-02-28 16:20:00,44.1,28.0,29.60,WNW,292,3.0,3.0,53,0.00,,,0.00,81,Wunderground v.1.15,2013-02-28 21:20:00,
2013-02-28 16:29:00,44.2,29.5,29.60,WNW,300,2.0,2.0,56,0.00,,,0.00,77,Wunderground v.1.15,2013-02-28 21:29:00,
2013-02-28 16:34:00,44.3,28.7,29.60,NW,309,2.0,2.0,54,0.00,,,0.00,65,Wunderground v.1.15,2013-02-28 21:34:00,
2013-02-28 16:39:00,44.3,29.1,29.60,NNW,336,2.0,4.0,55,0.00,,,0.00,47,Wunderground v.1.15,2013-02-28 21:39:00,
2013-02-28 16:45:00,44.1,28.9,29.60,NW,310,3.0,4.0,55,0.00,,,0.00,28,Wunderground v.1.15,2013-02-28 21:45:00,
2013-02-28 16:54:00,43.8,29.1,29.60,WNW,300,4.0,4.0,56,0.00,,,0.00,14,Wunderground v.1.15,2013-02-28 21:54:00,
2013-02-28 17:04:00,43.5,29.3,29.60,WNW,298,3.0,3.0,57,0.00,,,0.00,7,Wunderground v.1.15,2013-02-28 22:04:00,
2013-02-28 17:14:00,43.0,29.6,29.61,WNW,286,5.0,7.0,59,0.00,,,0.00,5,Wunderground v.1.15,2013-02-28 22:14:00,
2013-02-28 17:19:00,42.7,30.2,29.61,NW,304,5.0,7.0,61,0.00,,,0.00,0,Wunderground v.1.15,2013-02-28 22:19:00,
2013-02-28 17:24:00,42.4,30.7,29.61,WNW,284,5.0,7.0,63,0.00,,,0.00,0,Wunderground v.1.15,2013-02-28 22:24:00,
2013-02-28 17:34:00,42.0,30.7,29.62,WNW,288,2.0,8.0,64,0.00,,,0.00,0,Wunderground v.1.15,2013-02-28 22:34:00,
2013-02-28 17:39:00,41.8,30.5,29.62,WNW,286,3.0,3.0,64,0.00,,,0.00,0,Wunderground v.1.15,2013-02-28 22:39:00,
2013-02-28 17:49:00,41.6,30.7,29.62,West,269,3.0,4.0,65,0.00,,,0.00,0,Wunderground v.1.15,2013-02-28 22:49:00,
2013-02-28 17:59:00,41.5,31.4,29.62,WNW,291,3.0,3.0,67,0.00,,,0.00,0,Wunderground v.1.15,2013-02-28 22:59:00,
2013-02-28 18:09:00,41.3,30.4,29.63,NW,306,4.0,4.0,65,0.00,,,0.00,0,Wunderground v.1.15,2013-02-28 23:09:00,
2013-02-28 18:19:00,41.3,30.8,29.63,NW,308,5.0,5.0,66,0.00,,,0.00,0,Wunderground v.1.15,2013-02-28 23:19:00,
2013-02-28 18:29:00,41.1,31.0,29.64,NNW,340,6.0,6.0,67,0.00,,,0.00,0,Wunderground v.1.15,2013-02-28 23:29:00,
2013-02-28 18:34:00,40.9,30.8,29.64,NW,311,6.0,6.0,67,0.00,,,0.00,0,Wunderground v.1.15,2013-02-28 23:34:00,
2013-02-28 18:44:00,40.6,31.2,29.64,WNW,301,5.0,5.0,69,0.00,,,0.00,0,Wunderground v.1.15,2013-02-28 23:44:00,
2013-02-28 18:54:00,40.4,31.4,29.64,NW,309,4.0,4.0,70,0.00,,,0.00,0,Wunderground v.1.15,2013-02-28 23:54:00,
2013-02-28 18:59:00,40.3,31.3,29.65,West,281,4.0,6.0,70,0.00,,,0.00,0,Wunderground v.1.15,2013-02-28 23:59:00,
2013-02-28 19:09:00,40.2,30.8,29.65,WSW,253,5.0,6.0,69,0.00,,,0.00,0,Wunderground v.1.15,2013-03-01 00:09:00,
2013-02-28 19:29:00,39.8,31.2,29.66,West,272,5.0,6.0,71,0.00,,,0.00,0,Wunderground v.1.15,2013-03-01 00:29:00,
2013-02-28 19:34:00,39.5,31.2,29.66,NW,307,5.0,6.0,72,0.00,,,0.00,0,Wunderground v.1.15,2013-03-01 00:34:00,
2013-02-28 19:44:00,39.1,31.5,29.66,WNW,291,4.0,4.0,74,0.00,,,0.00,0,Wunderground v.1.15,2013-03-01 00:44:00,
2013-02-28 19:54:00,38.8,31.6,29.66,WSW,257,5.0,6.0,75,0.00,,,0.00,0,Wunderground v.1.15,2013-03-01 00:54:00,
2013-02-28 19:59:00,38.6,31.7,29.66,WSW,251,4.0,6.0,76,0.00,,,0.00,0,Wunderground v.1.15,2013-03-01 00:59:00,
2013-02-28 20:09:00,38.3,31.7,29.66,West,277,2.0,3.0,77,0.00,,,0.00,0,Wunderground v.1.15,2013-03-01 01:09:00,
2013-02-28 20:19:00,38.0,32.1,29.66,West,262,2.0,4.0,79,0.00,,,0.00,0,Wunderground v.1.15,2013-03-01 01:19:00,
2013-02-28 20:29:00,37.9,32.0,29.67,SW,223,2.0,5.0,79,0.00,,,0.00,0,Wunderground v.1.15,2013-03-01 01:29:00,
2013-02-28 20:39:00,37.8,32.2,29.67,West,264,5.0,6.0,80,0.00,,,0.00,0,Wunderground v.1.15,2013-03-01 01:39:00,
2013-02-28 20:44:00,37.7,32.4,29.67,West,266,5.0,6.0,81,0.00,,,0.00,0,Wunderground v.1.15,2013-03-01 01:44:00,
2013-02-28 20:54:00,37.5,32.5,29.67,West,270,3.0,7.0,82,0.00,,,0.00,0,Wunderground v.1.15,2013-03-01 01:54:00,
2013-02-28 20:59:00,37.4,32.4,29.67,West,274,5.0,5.0,82,0.00,,,0.00,0,Wunderground v.1.15,2013-03-01 01:59:00,
2013-02-28 21:04:00,37.3,32.3,29.67,WNW,288,5.0,6.0,82,0.00,,,0.00,0,Wunderground v.1.15,2013-03-01 02:04:00,
2013-02-28 21:14:00,37.2,32.5,29.67,West,279,4.0,7.0,83,0.00,,,0.00,0,Wunderground v.1.15,2013-03-01 02:14:00,
2013-02-28 21:24:00,37.1,32.4,29.67,West,265,3.0,3.0,83,0.00,,,0.00,0,Wunderground v.1.15,2013-03-01 02:24:00,
2013-02-28 21:34:00,37.1,32.4,29.68,WNW,301,4.0,6.0,83,0.00,,,0.00,0,Wunderground v.1.15,2013-03-01 02:34:00,
2013-02-28 21:39:00,37.1,32.4,29.68,WSW,254,4.0,4.0,83,0.00,,,0.00,0,Wunderground v.1.15,2013-03-01 02:39:00,
2013-02-28 21:49:00,37.1,32.4,29.68,WSW,248,2.0,4.0,83,0.00,,,0.00,0,Wunderground v.1.15,2013-03-01 02:49:00,
2013-02-28 21:59:00,36.9,32.2,29.68,WNW,290,4.0,4.0,83,0.00,,,0.00,0,Wunderground v.1.15,2013-03-01 02:59:00,
2013-02-28 22:09:00,36.6,32.2,29.68,West,268,3.0,3.0,84,0.00,,,0.00,0,Wunderground v.1.15,2013-03-01 03:09:00,
2013-02-28 22:19:00,36.4,32.0,29.68,WNW,286,3.0,3.0,84,0.00,,,0.00,0,Wunderground v.1.15,2013-03-01 03:19:00,
2013-02-28 22:29:00,36.1,32.0,29.68,West,263,4.0,4.0,85,0.00,,,0.00,0,Wunderground v.1.15,2013-03-01 03:29:00,
2013-02-28 22:34:00,36.1,32.0,29.67,West,275,4.0,4.0,85,0.00,,,0.00,0,Wunderground v.1.15,2013-03-01 03:34:00,
2013-02-28 22:44:00,35.9,31.8,29.67,SW,225,3.0,3.0,85,0.00,,,0.00,0,Wunderground v.1.15,2013-03-01 03:44:00,
2013-02-28 22:49:00,35.7,31.6,29.67,WNW,285,3.0,3.0,85,0.00,,,0.00,0,Wunderground v.1.15,2013-03-01 03:49:00,
2013-02-28 22:59:00,35.3,31.5,29.67,WSW,253,2.0,3.0,86,0.00,,,0.00,0,Wunderground v.1.15,2013-03-01 03:59:00,
2013-02-28 23:09:00,35.1,31.6,29.67,WSW,254,2.0,2.0,87,0.00,,,0.00,0,Wunderground v.1.15,2013-03-01 04:09:00,
2013-02-28 23:14:00,34.8,31.3,29.67,West,277,2.0,3.0,87,0.00,,,0.00,0,Wunderground v.1.15,2013-03-01 04:14:00,
2013-02-28 23:24:00,34.3,31.1,29.67,West,273,3.0,3.0,88,0.00,,,0.00,0,Wunderground v.1.15,2013-03-01 04:24:00,
2013-02-28 23:29:00,34.0,30.8,29.67,West,280,3.0,3.0,88,0.00,,,0.00,0,Wunderground v.1.15,2013-03-01 04:29:00,
2013-02-28 23:39:00,33.7,30.8,29.66,West,280,2.0,2.0,89,0.00,,,0.00,0,Wunderground v.1.15,2013-03-01 04:39:00,
2013-02-28 23:44:00,33.5,30.6,29.67,West,280,2.0,2.0,89,0.00,,,0.00,0,Wunderground v.1.15,2013-03-01 04:44:00,
2013-02-28 23:54:00,33.2,30.6,29.67,West,281,1.0,1.0,90,0.00,,,0.00,0,Wunderground v.1.15,2013-03-01 04:54:00,
2013-02-28 23:59:00,33.2,30.3,29.66,West,281,1.0,2.0,89,0.00,,,0.00,0,Wunderground v.1.15,2013-03-01 04:59:00,